Aeroporto :
LOGIN :

Iscrizione | Disclaimer

   EN    FR    IT 

 










Sommario :    VFR   VFR Marginale   IFR   IFR Intensivo   IFR Molto Intensivo
Visibilità : 
Base nubi : 
>= 8 km
>= 3000ft
5 / 8 km
1000 / 3000 ft
1500m / 5 km
500 / 1000 ft
800 / 1500m
200 / 500 ft
< 800m
< 200 ft
Simboli :   Temporali  Nebbia  Neve Forte  Precipitazioni Forti  Vento > 20 kt
SIGMETs :   Varie  Temporali  Ghiacco  Turbolenza  Onda orograficha  Ceneri Vulcaniche






- Altitudine del aeroporto : 156 ft
- Codice IATA : OMO


LQMO - Mostar

ULTIMO METAR :
  • 291300Z VRB06KT 9999 FEW045 FEW050TCU SCT076 24/05 Q1015

METARs OBSOLETI :
  • 291230Z 33008KT 300V050 9999 FEW040 SCT065 BKN093 23/05 Q1015
  • 291200Z 31009KT 280V350 9999 FEW040 SCT085 23/05 Q1015
  • 291100Z 32013KT 290V360 9999 FEW040 SCT072 23/06 Q1016

TAF TAF LQMO
Valido dal 29 a 12 ore il 30 a 12 ore UTC


291100Z 2912/3012 02007KT 9999 FEW040 SCT070 TX25/2912Z TN14/3003Z
PROB40
TEMPO 2912/2917 32015KT 5000 SHRA FEW030TCU SCT040
PROB30
TEMPO 2912/2915 VRB15KT 3000 TSRA FEW030CB SCT040
PROB40
TEMPO 3009/3012 24015KT 3000 TSRA FEW030CB SCT040



MetMap, La meteo Aeronautica in un colpo d'occhio ! - Copyright ORBIFLY Dicembre 2007 - Disclaimer

ORBIFLY MET'MAP TEAM :

Programmazione e sviluppo : Alexandra Zaïnal
Concezione : Baudouin d'Aumeries
Aiuto per la programmazione : Marc-Olivier Méhu
Supporto tecnico e logistico : Manuel Goepfert
Aiuto per la traduzione : Arnaldo La Scala

Contatto : metmap@orbifly.com




FONTI E CREDITI :

   NOAA